.
Local / Fort Wayne - NE Ind.

U N D E R   C O N S T R U C T I O N

Local Weather
Fort Wayne – NE Indiana

Northern Indiana (IWX) Radar

Latest IWX NEXRAD
Base Reflectivity



Latest IWX NEXRAD
Base Velocity

Indiana-Ohio Visible Satellite

For infrared and water vapor imagery, see Great Lakes - Midwest.

Current Conditions

Recent report from the Fort Wayne International Airport

Feb 26, 2020 - 11:54 PM EST / 2020.02.27 0454 UTC


The skies are overcast and there is light snow. The temperature is 27.0 F (-2.8 C) and the dew point is 19.9 F (-6.7 C), giving a relative humidity of 74%. The barometric pressure is 29.97 in. Hg (1014 hPa). The wind is from the NW (320 degrees) at 15 MPH (13 KT) gusting to 24 MPH (21 KT) creating a wind chill temperature of 15 F (-9 C), and the visibility is 9 mile(s).

KFWA 270454Z 32013G21KT 9SM -SN SCT018 BKN029 OVC033 M03/M07 A2997 RMK AO2 SLP158 PRESENT WX DRSN P0000 T10281067 400111033

Local Weather — Contents

Local Weather — Links

CoCoRaHS
IN-AL-39
A2 Web Hosting
Creative Commons License
GoDaddy
search engine by freefind advanced

loaded 2020-02-27 00:53:31 • last modified 2017-02-11 13:27:36
Privacy PolicyDisclaimer
• wx.awcolley.com is powered by PmWiki v.2002016 •
• all content (unless otherwise noted) © 2020 A W Colley